createdAt,value
2022-08-09T00:00:00.668Z,4.99
2022-08-09T00:02:32.135Z,5.41
2022-08-09T00:05:03.520Z,5.20
2022-08-09T00:07:46.870Z,5.16
2022-08-09T00:10:14.421Z,5.60
2022-08-09T00:12:52.651Z,5.40
2022-08-09T00:15:20.541Z,5.29
2022-08-09T00:18:10.913Z,5.51
2022-08-09T00:20:42.229Z,5.74
2022-08-09T00:23:57.861Z,5.72
2022-08-09T00:26:05.089Z,5.83
2022-08-09T00:28:34.514Z,5.92
2022-08-09T00:31:02.214Z,5.57
2022-08-09T00:33:51.515Z,5.83
2022-08-09T00:36:19.151Z,5.92
2022-08-09T00:38:46.654Z,5.83
2022-08-09T00:44:10.864Z,6.00
2022-08-09T00:44:19.578Z,5.93
2022-08-09T00:46:57.613Z,5.89
2022-08-09T00:49:31.967Z,5.58
2022-08-09T00:52:05.359Z,5.88
2022-08-09T00:54:35.104Z,5.68
2022-08-09T00:57:10.455Z,5.86
2022-08-09T00:59:40.995Z,5.91
2022-08-09T01:02:09.160Z,5.83
2022-08-09T01:04:38.149Z,6.23
2022-08-09T01:07:05.454Z,5.91
2022-08-09T01:09:39.524Z,5.94
2022-08-09T01:12:08.505Z,6.18
2022-08-09T01:14:38.773Z,6.14
2022-08-09T01:17:08.877Z,6.13
2022-08-09T01:19:39.882Z,6.39
2022-08-09T01:22:19.206Z,6.05
2022-08-09T01:24:50.380Z,6.32
2022-08-09T01:27:19.624Z,6.54
2022-08-09T01:29:55.486Z,6.65
2022-08-09T01:32:31.431Z,6.33
2022-08-09T01:35:18.297Z,6.33
2022-08-09T01:38:09.682Z,6.76
2022-08-09T01:40:38.206Z,6.72
2022-08-09T01:43:07.155Z,6.54
2022-08-09T01:45:35.565Z,6.32
2022-08-09T01:48:15.792Z,6.77
2022-08-09T01:50:43.103Z,6.47
2022-08-09T01:53:19.419Z,6.77
2022-08-09T01:55:47.500Z,6.56
2022-08-09T01:58:14.774Z,6.44
2022-08-09T02:00:43.126Z,6.30
2022-08-09T02:03:13.930Z,6.86
2022-08-09T02:06:03.878Z,6.96
2022-08-09T02:08:38.674Z,6.99
2022-08-09T02:11:17.281Z,6.84
2022-08-09T02:14:06.377Z,6.69
2022-08-09T02:16:35.276Z,7.19
2022-08-09T02:19:19.338Z,6.96
2022-08-09T02:21:46.633Z,7.16
2022-08-09T02:24:26.312Z,7.23
2022-08-09T02:26:54.182Z,6.98
2022-08-09T02:29:21.935Z,7.25
2022-08-09T02:31:49.200Z,7.31
2022-08-09T02:34:40.058Z,7.63
2022-08-09T02:37:03.802Z,7.11
2022-08-09T02:39:34.114Z,7.22
2022-08-09T02:42:09.449Z,7.22
2022-08-09T02:44:36.747Z,7.41
2022-08-09T02:47:04.914Z,7.36
2022-08-09T02:49:38.897Z,7.52
2022-08-09T02:52:08.777Z,7.77
2022-08-09T02:54:36.051Z,7.75
2022-08-09T02:57:23.112Z,7.34
2022-08-09T03:00:21.375Z,7.98
2022-08-09T03:02:38.478Z,7.62
2022-08-09T03:05:25.434Z,7.84
2022-08-09T03:07:55.183Z,8.09
2022-08-09T03:10:22.858Z,7.73
2022-08-09T03:12:52.199Z,7.95
2022-08-09T03:15:20.049Z,7.81
2022-08-09T03:17:47.312Z,7.79
2022-08-09T03:20:29.458Z,7.69
2022-08-09T03:22:58.323Z,7.94
2022-08-09T03:26:03.153Z,7.90
2022-08-09T03:28:25.234Z,7.94
2022-08-09T03:30:52.710Z,8.17
2022-08-09T03:33:19.971Z,8.18
2022-08-09T03:36:12.848Z,8.13
2022-08-09T03:38:34.467Z,8.14
2022-08-09T03:41:02.748Z,8.13
2022-08-09T03:43:31.558Z,7.99
2022-08-09T03:46:03.179Z,8.07
2022-08-09T03:48:51.517Z,8.17
2022-08-09T03:51:55.924Z,8.50
2022-08-09T03:54:06.609Z,8.35
2022-08-09T03:56:38.491Z,8.19
2022-08-09T03:59:08.731Z,8.01
2022-08-09T04:01:44.304Z,8.24
2022-08-09T04:04:14.700Z,8.13
2022-08-09T04:06:48.756Z,7.97
2022-08-09T04:09:48.330Z,8.13
2022-08-09T04:12:03.913Z,7.94
2022-08-09T04:14:59.211Z,8.12
2022-08-09T04:17:29.950Z,8.48
2022-08-09T04:19:58.641Z,8.35
2022-08-09T04:22:30.262Z,8.65
2022-08-09T04:24:59.208Z,8.23
2022-08-09T04:27:26.503Z,8.30
2022-08-09T04:29:56.413Z,8.72
2022-08-09T04:32:33.704Z,8.69
2022-08-09T04:35:04.339Z,8.46
2022-08-09T04:37:45.192Z,8.28
2022-08-09T04:40:19.092Z,8.52
2022-08-09T04:42:48.432Z,8.25
2022-08-09T04:45:15.978Z,8.83
2022-08-09T04:47:45.152Z,8.96
2022-08-09T04:50:34.982Z,8.48
2022-08-09T04:53:05.248Z,8.51
2022-08-09T04:55:43.601Z,8.82
2022-08-09T04:58:26.473Z,8.54
2022-08-09T05:00:54.400Z,7.83
2022-08-09T05:03:39.845Z,7.94
2022-08-09T05:06:09.204Z,7.80
2022-08-09T05:08:36.487Z,7.82
2022-08-09T05:11:03.752Z,7.93
2022-08-09T05:13:38.768Z,8.04
2022-08-09T05:16:06.398Z,7.93
2022-08-09T05:18:37.643Z,7.73
2022-08-09T05:21:23.100Z,7.43
2022-08-09T05:23:59.708Z,7.92
2022-08-09T05:26:36.714Z,7.48
2022-08-09T05:29:17.560Z,7.23
2022-08-09T05:31:56.961Z,7.14
2022-08-09T05:34:26.046Z,7.35
2022-08-09T05:36:58.481Z,7.51
2022-08-09T05:39:36.108Z,7.23
2022-08-09T05:42:10.321Z,7.19
2022-08-09T05:44:50.431Z,7.16
2022-08-09T05:47:18.645Z,7.23
2022-08-09T05:50:26.696Z,7.48
2022-08-09T05:52:33.403Z,7.28
2022-08-09T05:55:03.168Z,7.44
2022-08-09T05:57:55.840Z,7.40
2022-08-09T06:00:21.594Z,7.20
2022-08-09T06:02:49.539Z,7.40
2022-08-09T06:05:30.579Z,7.34
2022-08-09T06:08:11.115Z,7.68
2022-08-09T06:10:38.696Z,7.53
2022-08-09T06:13:18.613Z,7.52
2022-08-09T06:15:47.745Z,7.46
2022-08-09T06:18:19.135Z,7.49
2022-08-09T06:20:54.217Z,7.58
2022-08-09T06:23:23.929Z,7.66
2022-08-09T06:26:11.137Z,8.06
2022-08-09T06:28:38.521Z,7.46
2022-08-09T06:31:10.671Z,7.69
2022-08-09T06:33:41.413Z,7.37
2022-08-09T06:36:09.243Z,7.49
2022-08-09T06:38:37.390Z,7.41
2022-08-09T06:41:04.851Z,7.19
2022-08-09T06:43:45.730Z,7.55
2022-08-09T06:46:13.199Z,7.64
2022-08-09T06:49:00.595Z,7.62
2022-08-09T06:51:28.282Z,7.59
2022-08-09T06:53:55.633Z,7.42
2022-08-09T06:56:30.950Z,7.32
2022-08-09T07:00:52.510Z,7.26
2022-08-09T07:01:57.932Z,6.99
2022-08-09T07:04:27.249Z,7.45
2022-08-09T07:07:00.424Z,7.34
2022-08-09T07:09:55.069Z,7.57
2022-08-09T07:12:18.004Z,7.44
2022-08-09T07:14:45.837Z,7.70
2022-08-09T07:17:18.818Z,7.66
2022-08-09T07:19:48.166Z,7.78
2022-08-09T07:22:18.415Z,7.49
2022-08-09T07:24:49.400Z,7.63
2022-08-09T07:27:26.156Z,7.64
2022-08-09T07:30:01.583Z,7.17
2022-08-09T07:32:32.905Z,7.47
2022-08-09T07:35:01.070Z,7.69
2022-08-09T07:37:30.180Z,7.67
2022-08-09T07:40:12.955Z,7.54
2022-08-09T07:42:40.696Z,7.17
2022-08-09T07:45:14.902Z,7.62
2022-08-09T07:48:00.771Z,7.88
2022-08-09T07:50:34.806Z,7.66
2022-08-09T07:53:04.866Z,7.43
2022-08-09T07:55:41.520Z,7.50
2022-08-09T07:58:21.593Z,7.15
2022-08-09T08:00:55.754Z,7.28
2022-08-09T08:03:37.031Z,7.16
2022-08-09T08:06:04.436Z,7.37
2022-08-09T08:09:01.276Z,7.89
2022-08-09T08:12:10.577Z,7.19
2022-08-09T08:14:06.728Z,7.53
2022-08-09T08:16:34.541Z,7.22
2022-08-09T08:19:03.118Z,7.59
2022-08-09T08:21:31.414Z,7.56
2022-08-09T08:24:00.941Z,7.72
2022-08-09T08:26:41.736Z,8.13
2022-08-09T08:29:14.824Z,7.82
2022-08-09T08:32:04.432Z,7.64
2022-08-09T08:34:34.364Z,8.27
2022-08-09T08:37:02.270Z,7.96
2022-08-09T08:39:47.853Z,7.76
2022-08-09T08:42:17.181Z,8.24
2022-08-09T08:44:44.459Z,8.34
2022-08-09T08:47:13.628Z,7.72
2022-08-09T08:49:48.310Z,7.82
2022-08-09T08:52:50.417Z,7.70
2022-08-09T08:55:05.949Z,7.90
2022-08-09T08:57:34.939Z,7.71
2022-08-09T09:00:12.842Z,7.38
2022-08-09T09:02:50.042Z,7.73
2022-08-09T09:05:20.281Z,7.52
2022-08-09T09:08:00.561Z,7.41
2022-08-09T09:10:27.824Z,7.34
2022-08-09T09:12:55.550Z,7.50
2022-08-09T09:15:28.277Z,7.18
2022-08-09T09:17:55.981Z,7.35
2022-08-09T09:20:23.270Z,7.03
2022-08-09T09:22:53.177Z,7.06
2022-08-09T09:26:04.291Z,6.70
2022-08-09T09:28:10.931Z,6.95
2022-08-09T09:30:40.560Z,6.87
2022-08-09T09:33:16.470Z,6.99
2022-08-09T09:35:47.991Z,6.62
2022-08-09T09:38:36.579Z,6.46
2022-08-09T09:41:04.589Z,6.47
2022-08-09T09:43:41.460Z,6.72
2022-08-09T09:49:06.462Z,6.03
2022-08-09T09:51:40.125Z,5.91
2022-08-09T09:54:17.109Z,5.73
2022-08-09T09:56:53.323Z,5.87
2022-08-09T09:59:35.480Z,5.82
2022-08-09T10:02:03.017Z,5.54
2022-08-09T10:04:31.355Z,5.31
2022-08-09T10:06:58.941Z,5.67
2022-08-09T10:09:31.009Z,5.53
2022-08-09T10:12:12.182Z,5.41
2022-08-09T10:14:48.445Z,5.93
2022-08-09T10:17:24.306Z,5.72
2022-08-09T10:20:03.708Z,5.76
2022-08-09T10:22:33.729Z,5.22
2022-08-09T10:25:03.693Z,5.36
2022-08-09T10:27:45.292Z,5.50
2022-08-09T10:34:04.895Z,5.80
2022-08-09T10:36:01.227Z,5.41
2022-08-09T10:38:39.640Z,5.42
2022-08-09T10:41:16.984Z,5.76
2022-08-09T10:43:46.956Z,5.51
2022-08-09T10:46:23.418Z,5.38
2022-08-09T10:48:54.151Z,5.39
2022-08-09T10:51:21.441Z,5.31
2022-08-09T10:53:57.212Z,5.40
2022-08-09T10:56:24.490Z,5.41
2022-08-09T10:58:54.108Z,5.42
2022-08-09T11:03:13.479Z,5.80
2022-08-09T11:04:27.951Z,5.55
2022-08-09T11:06:56.015Z,5.45
2022-08-09T11:09:26.827Z,5.61
2022-08-09T11:12:00.962Z,5.60
2022-08-09T11:14:32.502Z,5.44
2022-08-09T11:16:59.771Z,5.51
2022-08-09T11:20:10.668Z,5.43
2022-08-09T11:22:24.254Z,5.43
2022-08-09T11:24:53.116Z,5.45
2022-08-09T11:27:52.765Z,5.45
2022-08-09T11:30:32.381Z,5.47
2022-08-09T11:32:55.271Z,5.25
2022-08-09T11:35:35.169Z,5.37
2022-08-09T11:38:13.575Z,5.29
2022-08-09T11:40:42.192Z,5.09
2022-08-09T11:43:11.086Z,5.41
2022-08-09T11:45:42.284Z,5.09
2022-08-09T11:48:19.350Z,5.36
2022-08-09T11:52:49.440Z,4.89
2022-08-09T11:53:58.973Z,4.84
2022-08-09T11:56:42.056Z,4.92
2022-08-09T11:59:18.429Z,5.29
2022-08-09T12:02:18.044Z,4.95
2022-08-09T12:04:37.303Z,4.93
2022-08-09T12:07:08.277Z,5.16
2022-08-09T12:09:36.167Z,5.42
2022-08-09T12:12:04.220Z,5.29
2022-08-09T12:14:40.666Z,5.05
2022-08-09T12:17:33.845Z,4.80
2022-08-09T12:20:06.130Z,4.99
2022-08-09T12:22:33.507Z,4.94
2022-08-09T12:25:00.949Z,4.64
2022-08-09T12:29:11.075Z,4.69
2022-08-09T12:30:36.760Z,4.56
2022-08-09T12:33:03.033Z,4.79
2022-08-09T12:35:34.765Z,4.73
2022-08-09T12:38:07.337Z,4.60
2022-08-09T12:40:35.586Z,4.68
2022-08-09T12:43:03.222Z,4.67
2022-08-09T12:45:33.976Z,4.72
2022-08-09T12:48:05.674Z,4.25
2022-08-09T12:50:38.255Z,4.76
2022-08-09T12:53:17.869Z,4.36
2022-08-09T12:56:15.561Z,4.34
2022-08-09T12:58:33.895Z,4.53
2022-08-09T13:01:01.363Z,4.50
2022-08-09T13:03:53.444Z,4.22
2022-08-09T13:06:21.662Z,4.13
2022-08-09T13:08:49.368Z,3.78
2022-08-09T13:11:25.953Z,4.12
2022-08-09T13:14:37.880Z,4.20
2022-08-09T13:16:40.844Z,4.30
2022-08-09T13:19:13.275Z,4.30
2022-08-09T13:22:35.718Z,4.19
2022-08-09T13:24:53.482Z,4.10
2022-08-09T13:27:15.050Z,4.01
2022-08-09T13:30:04.039Z,4.03
2022-08-09T13:32:30.950Z,3.88
2022-08-09T13:34:59.296Z,4.08
2022-08-09T13:37:52.465Z,4.35
2022-08-09T13:41:56.541Z,4.33
2022-08-09T13:43:05.054Z,3.67
2022-08-09T13:46:42.739Z,3.74
2022-08-09T13:48:19.930Z,4.34
2022-08-09T13:50:48.237Z,4.31
2022-08-09T13:53:16.095Z,4.21
2022-08-09T13:55:44.861Z,3.55
2022-08-09T13:58:15.137Z,4.02
2022-08-09T14:00:49.830Z,4.91
2022-08-09T14:04:01.935Z,3.93
2022-08-09T14:06:14.764Z,3.61
2022-08-09T14:08:47.015Z,3.75
2022-08-09T14:11:16.162Z,5.17
2022-08-09T14:14:24.209Z,3.42
2022-08-09T14:16:31.093Z,3.33
2022-08-09T14:18:59.528Z,3.76
2022-08-09T14:21:29.411Z,3.58
2022-08-09T14:24:01.562Z,3.42
2022-08-09T14:26:37.963Z,3.41
2022-08-09T14:29:07.953Z,3.11
2022-08-09T14:31:53.678Z,3.05
2022-08-09T14:34:27.308Z,3.06
2022-08-09T14:36:59.763Z,2.95
2022-08-09T14:39:47.537Z,2.93
2022-08-09T14:42:30.060Z,2.94
2022-08-09T14:44:59.497Z,3.01
2022-08-09T14:47:44.908Z,3.05
2022-08-09T14:50:17.422Z,3.25
2022-08-09T14:52:50.680Z,3.06
2022-08-09T14:55:19.937Z,2.89
2022-08-09T14:57:48.868Z,3.08
2022-08-09T15:00:16.399Z,2.67
2022-08-09T15:02:47.544Z,2.88
2022-08-09T15:05:18.932Z,3.18
2022-08-09T15:07:56.140Z,2.86
2022-08-09T15:10:24.932Z,2.68
2022-08-09T15:12:52.688Z,2.96
2022-08-09T15:15:20.510Z,2.72
2022-08-09T15:17:51.782Z,3.12
2022-08-09T15:21:55.733Z,3.25
2022-08-09T15:24:01.830Z,2.83
2022-08-09T15:25:55.668Z,2.61
2022-08-09T15:28:28.151Z,2.90
2022-08-09T15:31:08.740Z,2.83
2022-08-09T15:34:17.753Z,2.85
2022-08-09T15:36:28.732Z,2.80
2022-08-09T15:38:58.868Z,2.85
2022-08-09T15:41:31.995Z,2.67
2022-08-09T15:43:59.829Z,2.50
2022-08-09T15:46:33.084Z,2.69
2022-08-09T15:49:20.707Z,2.50
2022-08-09T15:52:04.740Z,2.64
2022-08-09T15:54:46.100Z,2.55
2022-08-09T15:57:19.338Z,2.49
2022-08-09T16:00:01.261Z,2.47
2022-08-09T16:02:28.531Z,2.80
2022-08-09T16:04:56.348Z,2.71
2022-08-09T16:07:23.630Z,2.46
2022-08-09T16:10:04.534Z,2.39
2022-08-09T16:12:32.979Z,2.81
2022-08-09T16:15:00.552Z,2.73
2022-08-09T16:17:28.610Z,2.71
2022-08-09T16:20:04.033Z,2.74
2022-08-09T16:22:32.731Z,2.55
2022-08-09T16:25:01.665Z,2.63
2022-08-09T16:27:29.644Z,2.55
2022-08-09T16:30:01.014Z,2.57
2022-08-09T16:32:53.413Z,2.63
2022-08-09T16:35:39.185Z,2.54
2022-08-09T16:38:04.262Z,2.60
2022-08-09T16:40:40.610Z,2.43
2022-08-09T16:43:08.566Z,2.36
2022-08-09T16:45:37.184Z,2.71
2022-08-09T16:48:50.191Z,2.85
2022-08-09T16:51:07.668Z,2.82
2022-08-09T16:53:36.069Z,3.20
2022-08-09T16:56:09.346Z,3.13
2022-08-09T16:58:39.598Z,3.01
2022-08-09T17:01:09.800Z,2.86
2022-08-09T17:03:37.811Z,3.08
2022-08-09T17:06:28.399Z,3.05
2022-08-09T17:09:00.135Z,2.80
2022-08-09T17:11:40.033Z,3.17
2022-08-09T17:14:26.499Z,2.92
2022-08-09T17:16:55.548Z,3.07
2022-08-09T17:19:22.843Z,3.09
2022-08-09T17:21:55.593Z,3.28
2022-08-09T17:24:30.439Z,3.34
2022-08-09T17:26:58.428Z,3.49
2022-08-09T17:29:31.866Z,3.38
2022-08-09T17:32:05.404Z,3.39
2022-08-09T17:35:07.453Z,3.49
2022-08-09T17:37:21.156Z,3.69
2022-08-09T17:39:52.558Z,3.58
2022-08-09T17:42:41.411Z,3.14
2022-08-09T17:45:15.981Z,3.30
2022-08-09T17:47:54.967Z,3.27
2022-08-09T17:50:36.151Z,3.25
2022-08-09T17:53:04.708Z,3.27
2022-08-09T17:55:48.535Z,3.45
2022-08-09T17:58:16.982Z,3.36
2022-08-09T18:00:48.129Z,3.05
2022-08-09T18:03:17.940Z,3.12
2022-08-09T18:05:52.931Z,3.35
2022-08-09T18:08:21.758Z,3.32
2022-08-09T18:11:00.648Z,3.01
2022-08-09T18:13:43.432Z,2.99
2022-08-09T18:16:16.505Z,2.98
2022-08-09T18:18:49.261Z,2.76
2022-08-09T18:21:22.699Z,2.93
2022-08-09T18:24:10.223Z,2.78
2022-08-09T18:26:38.139Z,3.02
2022-08-09T18:30:38.264Z,2.94
2022-08-09T18:31:56.154Z,2.77
2022-08-09T18:34:24.310Z,2.84
2022-08-09T18:36:53.388Z,2.55
2022-08-09T18:39:20.963Z,2.70
2022-08-09T18:41:53.372Z,2.64
2022-08-09T18:44:22.878Z,2.62
2022-08-09T18:47:04.927Z,2.74
2022-08-09T18:49:41.805Z,2.73
2022-08-09T18:52:11.703Z,2.86
2022-08-09T18:54:39.270Z,2.71
2022-08-09T18:57:13.144Z,2.83
2022-08-09T18:59:51.305Z,2.65
2022-08-09T19:02:23.951Z,2.65
2022-08-09T19:05:15.288Z,2.64
2022-08-09T19:08:04.747Z,2.69
2022-08-09T19:10:37.258Z,2.53
2022-08-09T19:13:16.108Z,2.66
2022-08-09T19:15:50.109Z,2.60
2022-08-09T19:18:33.160Z,2.71
2022-08-09T19:21:05.596Z,2.81
2022-08-09T19:24:35.866Z,2.85
2022-08-09T19:26:31.152Z,2.75
2022-08-09T19:29:01.547Z,2.77
2022-08-09T19:31:30.363Z,2.88
2022-08-09T19:33:58.131Z,2.97
2022-08-09T19:36:30.872Z,2.78
2022-08-09T19:39:01.262Z,2.98
2022-08-09T19:41:35.612Z,2.81
2022-08-09T19:44:12.684Z,3.19
2022-08-09T19:46:50.304Z,2.81
2022-08-09T19:50:08.111Z,2.93
2022-08-09T19:52:07.820Z,3.00
2022-08-09T19:54:35.677Z,3.28
2022-08-09T19:57:02.969Z,3.08
2022-08-09T19:59:57.039Z,3.10
2022-08-09T20:04:13.909Z,3.05
2022-08-09T20:05:10.374Z,3.07
2022-08-09T20:07:56.643Z,3.18
2022-08-09T20:10:34.151Z,3.07
2022-08-09T20:13:02.282Z,3.26
2022-08-09T20:16:37.922Z,3.18
2022-08-09T20:18:17.037Z,3.39
2022-08-09T20:20:44.544Z,3.15
2022-08-09T20:23:11.825Z,3.41
2022-08-09T20:25:51.668Z,3.42
2022-08-09T20:28:27.475Z,3.30
2022-08-09T20:31:02.641Z,3.57
2022-08-09T20:33:41.146Z,3.22
2022-08-09T20:36:11.531Z,3.80
2022-08-09T20:39:07.125Z,3.41
2022-08-09T20:41:34.712Z,3.43
2022-08-09T20:44:04.649Z,3.25
2022-08-09T20:46:44.248Z,3.40
2022-08-09T20:49:12.415Z,3.59
2022-08-09T20:51:41.638Z,3.52
2022-08-09T20:54:12.719Z,3.63
2022-08-09T20:56:46.927Z,3.60
2022-08-09T20:59:16.903Z,3.55
2022-08-09T21:01:51.552Z,3.73
2022-08-09T21:05:55.221Z,3.56
2022-08-09T21:07:11.312Z,4.02
2022-08-09T21:09:41.837Z,3.65
2022-08-09T21:14:41.894Z,3.70
2022-08-09T21:18:21.219Z,3.72
2022-08-09T21:20:18.638Z,3.48
2022-08-09T21:22:46.794Z,3.40
2022-08-09T21:25:14.552Z,3.58
2022-08-09T21:27:50.982Z,3.71
2022-08-09T21:30:22.513Z,3.68
2022-08-09T21:32:49.958Z,3.48
2022-08-09T21:35:17.541Z,3.38
2022-08-09T21:37:58.731Z,3.28
2022-08-09T21:40:30.218Z,3.70
2022-08-09T21:42:57.845Z,3.24
2022-08-09T21:45:25.515Z,3.47
2022-08-09T21:47:52.856Z,3.46
2022-08-09T21:50:35.854Z,3.68
2022-08-09T21:53:05.928Z,3.38
2022-08-09T21:55:34.117Z,3.60
2022-08-09T21:58:01.840Z,3.53
2022-08-09T22:00:32.724Z,3.57
2022-08-09T22:03:00.608Z,3.48
2022-08-09T22:05:36.771Z,3.48
2022-08-09T22:08:05.089Z,3.53
2022-08-09T22:10:32.379Z,3.75
2022-08-09T22:13:07.629Z,3.46
2022-08-09T22:15:38.651Z,3.56
2022-08-09T22:18:11.975Z,3.59
2022-08-09T22:20:39.682Z,3.53
2022-08-09T22:23:10.575Z,3.67
2022-08-09T22:26:07.454Z,3.58
2022-08-09T22:28:32.974Z,3.60
2022-08-09T22:31:00.621Z,3.85
2022-08-09T22:33:37.673Z,3.58
2022-08-09T22:36:19.345Z,3.80
2022-08-09T22:38:46.959Z,3.45
2022-08-09T22:41:14.234Z,3.70
2022-08-09T22:44:01.872Z,3.54
2022-08-09T22:48:15.519Z,3.51
2022-08-09T22:49:15.969Z,3.55
2022-08-09T22:51:49.446Z,3.61
2022-08-09T22:54:26.865Z,3.73
2022-08-09T22:56:57.193Z,3.82
2022-08-09T22:59:58.413Z,3.96
2022-08-09T23:02:15.137Z,3.92
2022-08-09T23:04:43.316Z,3.67
2022-08-09T23:08:01.488Z,3.68
2022-08-09T23:10:08.820Z,3.60
2022-08-09T23:12:36.094Z,3.75
2022-08-09T23:15:03.385Z,3.65
2022-08-09T23:17:30.796Z,3.67
2022-08-09T23:20:06.628Z,3.73
2022-08-09T23:22:35.872Z,3.67
2022-08-09T23:25:05.255Z,3.77
2022-08-09T23:27:32.821Z,3.94
2022-08-09T23:30:00.300Z,3.94
2022-08-09T23:32:27.574Z,3.88
2022-08-09T23:34:54.843Z,3.85
2022-08-09T23:37:25.425Z,3.82
2022-08-09T23:39:52.973Z,3.74
2022-08-09T23:42:20.292Z,3.72
2022-08-09T23:44:47.570Z,3.80
2022-08-09T23:47:14.862Z,3.68
2022-08-09T23:49:42.157Z,3.60
2022-08-09T23:52:09.436Z,3.80
2022-08-09T23:54:38.685Z,3.76
2022-08-09T23:57:11.683Z,4.01
2022-08-09T23:59:41.736Z,3.73
